createdAt,value
2023-04-26T00:02:21.884Z,69.00
2023-04-26T00:04:56.437Z,68.90
2023-04-26T00:07:28.609Z,69.20
2023-04-26T00:09:56.526Z,69.10
2023-04-26T00:12:25.702Z,69.10
2023-04-26T00:14:53.677Z,69.10
2023-04-26T00:17:21.504Z,68.90
2023-04-26T00:19:49.705Z,69.20
2023-04-26T00:22:17.546Z,68.90
2023-04-26T00:24:45.662Z,69.20
2023-04-26T00:27:13.513Z,69.30
2023-04-26T00:29:42.984Z,69.10
2023-04-26T00:32:10.947Z,69.30
2023-04-26T00:34:39.347Z,69.50
2023-04-26T00:37:07.374Z,69.60
2023-04-26T00:39:35.179Z,69.70
2023-04-26T00:42:03.184Z,69.80
2023-04-26T00:44:31.025Z,69.90
2023-04-26T00:47:00.424Z,70.10
2023-04-26T00:49:28.564Z,70.20
2023-04-26T00:51:56.612Z,70.30
2023-04-26T00:54:25.732Z,70.30
2023-04-26T00:56:53.949Z,70.50
2023-04-26T00:59:22.253Z,70.60
2023-04-26T01:01:50.578Z,70.50
2023-04-26T01:04:20.073Z,70.30
2023-04-26T01:06:48.727Z,70.70
2023-04-26T01:09:16.708Z,70.70
2023-04-26T01:11:45.649Z,70.90
2023-04-26T01:14:14.179Z,70.60
2023-04-26T01:16:42.109Z,71.10
2023-04-26T01:19:12.378Z,71.00
2023-04-26T01:21:41.845Z,71.10
2023-04-26T01:24:12.998Z,71.10
2023-04-26T01:26:45.575Z,71.00
2023-04-26T01:29:18.605Z,71.10
2023-04-26T01:31:46.840Z,71.30
2023-04-26T01:34:15.270Z,71.30
2023-04-26T01:36:43.480Z,70.90
2023-04-26T01:39:13.109Z,71.10
2023-04-26T01:41:41.139Z,71.10
2023-04-26T01:44:08.965Z,71.40
2023-04-26T01:46:36.837Z,71.60
2023-04-26T01:49:04.886Z,71.40
2023-04-26T01:51:32.728Z,71.90
2023-04-26T01:54:00.732Z,71.90
2023-04-26T01:56:30.046Z,71.70
2023-04-26T01:58:59.184Z,71.90
2023-04-26T02:01:27.052Z,71.90
2023-04-26T02:03:54.932Z,72.00
2023-04-26T02:06:22.832Z,72.00
2023-04-26T02:08:51.089Z,70.60
2023-04-26T02:11:19.379Z,72.40
2023-04-26T02:13:48.627Z,72.40
2023-04-26T02:16:16.947Z,72.50
2023-04-26T02:18:45.403Z,72.60
2023-04-26T02:21:13.596Z,72.30
2023-04-26T02:23:41.632Z,72.60
2023-04-26T02:26:09.460Z,72.70
2023-04-26T02:28:37.359Z,72.90
2023-04-26T02:31:06.839Z,72.90
2023-04-26T02:33:35.158Z,72.90
2023-04-26T02:36:05.315Z,73.70
2023-04-26T02:38:34.613Z,73.10
2023-04-26T02:41:03.170Z,73.00
2023-04-26T02:43:31.358Z,72.80
2023-04-26T02:46:01.081Z,72.90
2023-04-26T02:48:30.214Z,73.20
2023-04-26T02:50:58.087Z,73.20
2023-04-26T02:53:25.884Z,73.20
2023-04-26T02:55:53.691Z,73.30
2023-04-26T02:58:21.531Z,73.20
2023-04-26T03:00:49.791Z,73.40
2023-04-26T03:03:17.986Z,73.30
2023-04-26T03:05:47.624Z,73.70
2023-04-26T03:08:16.039Z,74.40
2023-04-26T03:10:45.633Z,73.90
2023-04-26T03:13:13.578Z,74.00
2023-04-26T03:15:45.647Z,73.90
2023-04-26T03:18:13.531Z,74.30
2023-04-26T03:20:41.906Z,74.00
2023-04-26T03:23:11.240Z,74.90
2023-04-26T03:25:39.050Z,74.20
2023-04-26T03:28:07.053Z,75.30
2023-04-26T03:30:34.930Z,74.30
2023-04-26T03:33:02.830Z,74.40
2023-04-26T03:35:30.789Z,74.40
2023-04-26T03:37:58.852Z,73.10
2023-04-26T03:40:28.063Z,74.50
2023-04-26T03:42:55.953Z,74.50
2023-04-26T03:45:24.653Z,74.40
2023-04-26T03:47:52.558Z,74.40
2023-04-26T03:50:20.571Z,74.60
2023-04-26T03:52:48.706Z,74.30
2023-04-26T03:55:16.896Z,74.50
2023-04-26T03:57:46.033Z,74.40
2023-04-26T04:00:15.282Z,74.70
2023-04-26T04:02:43.948Z,74.60
2023-04-26T04:05:12.019Z,74.80
2023-04-26T04:07:39.915Z,74.50
2023-04-26T04:10:10.586Z,74.70
2023-04-26T04:12:38.508Z,74.90
2023-04-26T04:15:09.186Z,74.90
2023-04-26T04:17:38.596Z,75.10
2023-04-26T04:20:08.749Z,75.10
2023-04-26T04:22:36.549Z,74.90
2023-04-26T04:25:04.733Z,74.90
2023-04-26T04:27:32.570Z,74.60
2023-04-26T04:30:03.599Z,74.50
2023-04-26T04:32:34.030Z,74.70
2023-04-26T07:26:29.788Z,74.20
2023-04-26T07:28:58.103Z,74.30
2023-04-26T07:31:25.940Z,74.50
2023-04-26T07:33:54.206Z,73.80
2023-04-26T07:36:23.815Z,73.90
2023-04-26T07:38:53.118Z,73.30
2023-04-26T07:41:21.039Z,72.90
2023-04-26T07:43:51.946Z,72.60
2023-04-26T07:46:20.147Z,72.00
2023-04-26T07:48:48.077Z,72.50
2023-04-26T07:51:17.105Z,72.70
2023-04-26T07:53:45.246Z,72.50
2023-04-26T07:56:13.476Z,72.10
2023-04-26T07:58:41.466Z,71.70
2023-04-26T08:01:11.736Z,71.50
2023-04-26T08:03:39.766Z,71.30
2023-04-26T08:06:08.845Z,71.30
2023-04-26T08:08:42.724Z,70.90
2023-04-26T08:11:10.683Z,71.00
2023-04-26T08:13:38.698Z,71.00
2023-04-26T08:16:07.276Z,70.60
2023-04-26T08:18:36.848Z,70.50
2023-04-26T08:21:05.052Z,70.00
2023-04-26T08:23:35.732Z,70.00
2023-04-26T08:26:03.849Z,69.50
2023-04-26T08:28:31.840Z,69.40
2023-04-26T08:30:59.754Z,68.70
2023-04-26T08:33:27.747Z,68.10
2023-04-26T08:35:57.078Z,67.50
2023-04-26T08:38:25.276Z,66.80
2023-04-26T08:40:55.847Z,66.50
2023-04-26T08:43:24.216Z,66.00
2023-04-26T08:45:52.505Z,65.70
2023-04-26T08:48:21.758Z,65.40
2023-04-26T08:50:50.853Z,65.50
2023-04-26T08:53:20.099Z,65.40
2023-04-26T08:55:50.317Z,65.00
2023-04-26T08:58:18.949Z,65.30
2023-04-26T09:00:47.835Z,64.50
2023-04-26T09:03:18.407Z,64.30
2023-04-26T09:05:46.825Z,63.60
2023-04-26T09:08:18.304Z,63.40
2023-04-26T09:10:48.750Z,63.60
2023-04-26T09:13:16.610Z,63.80
2023-04-26T09:15:44.893Z,64.20
2023-04-26T09:18:20.131Z,64.00
2023-04-26T09:21:03.534Z,63.80
2023-04-26T09:23:31.658Z,64.30
2023-04-26T09:26:19.131Z,64.40
2023-04-26T09:28:47.850Z,64.60
2023-04-26T09:31:38.116Z,65.10
2023-04-26T09:34:06.280Z,64.20
2023-04-26T09:36:34.189Z,64.30
2023-04-26T09:39:02.110Z,64.20
2023-04-26T09:41:45.701Z,64.20
2023-04-26T09:44:23.751Z,63.40
2023-04-26T09:47:02.648Z,62.90
2023-04-26T09:49:34.818Z,62.60
2023-04-26T09:52:06.829Z,63.10
2023-04-26T09:54:46.037Z,62.50
2023-04-26T09:57:16.797Z,62.00
2023-04-26T09:59:50.346Z,62.40
2023-04-26T10:02:21.896Z,61.80
2023-04-26T10:04:52.024Z,62.00
2023-04-26T10:07:21.759Z,61.00
2023-04-26T10:09:50.661Z,61.30
2023-04-26T10:12:21.034Z,61.40
2023-04-26T10:14:49.807Z,61.30
2023-04-26T10:17:20.443Z,60.90
2023-04-26T10:19:53.451Z,60.80
2023-04-26T10:22:25.257Z,59.50
2023-04-26T10:24:55.761Z,59.60
2023-04-26T10:27:51.028Z,59.80
2023-04-26T10:30:24.012Z,58.50
2023-04-26T10:33:23.581Z,59.20
2023-04-26T10:36:07.982Z,58.00
2023-04-26T10:38:37.249Z,57.00
2023-04-26T10:41:31.383Z,57.00
2023-04-26T10:44:22.960Z,56.50
2023-04-26T10:46:53.828Z,56.90
2023-04-26T10:49:26.303Z,56.70
2023-04-26T10:52:14.844Z,57.00
2023-04-26T10:54:56.851Z,57.10
2023-04-26T10:57:45.871Z,56.50
2023-04-26T11:00:20.907Z,56.50
2023-04-26T11:03:00.066Z,56.70
2023-04-26T11:05:35.701Z,56.40
2023-04-26T11:08:09.105Z,56.70
2023-04-26T11:10:38.998Z,56.90
2023-04-26T11:13:06.903Z,57.00
2023-04-26T11:15:36.839Z,57.10
2023-04-26T11:18:05.830Z,56.60
2023-04-26T11:20:34.697Z,56.70
2023-04-26T11:23:02.784Z,56.50
2023-04-26T11:25:31.301Z,56.30
2023-04-26T11:28:01.248Z,56.10
2023-04-26T11:30:32.699Z,56.00
2023-04-26T11:33:02.843Z,56.40
2023-04-26T11:35:30.986Z,56.30
2023-04-26T11:38:04.485Z,56.40
2023-04-26T11:40:33.366Z,56.40
2023-04-26T11:43:02.736Z,56.20
2023-04-26T11:45:32.394Z,56.00
2023-04-26T11:48:02.791Z,55.70
2023-04-26T11:50:32.451Z,55.10
2023-04-26T11:53:02.561Z,55.40
2023-04-26T11:55:32.198Z,55.00
2023-04-26T11:58:00.328Z,55.00
2023-04-26T12:00:28.853Z,55.00
2023-04-26T12:02:58.004Z,54.40
2023-04-26T12:05:30.628Z,54.40
2023-04-26T12:08:00.028Z,53.90
2023-04-26T12:10:29.480Z,54.60
2023-04-26T12:12:59.616Z,54.50
2023-04-26T12:15:30.979Z,54.90
2023-04-26T12:18:01.106Z,54.60
2023-04-26T12:20:32.393Z,55.00
2023-04-26T12:23:02.007Z,55.30
2023-04-26T12:25:30.645Z,55.20
2023-04-26T12:27:58.561Z,55.10
2023-04-26T12:30:27.798Z,54.90
2023-04-26T12:33:02.763Z,54.60
2023-04-26T12:35:38.999Z,54.40
2023-04-26T12:38:06.813Z,54.20
2023-04-26T12:40:34.741Z,54.70
2023-04-26T12:43:02.556Z,54.70
2023-04-26T12:45:30.373Z,54.60
2023-04-26T12:47:58.774Z,54.80
2023-04-26T12:50:27.636Z,54.80
2023-04-26T12:52:57.905Z,53.50
2023-04-26T12:55:25.981Z,53.30
2023-04-26T12:57:54.233Z,53.00
2023-04-26T13:00:22.651Z,53.30
2023-04-26T13:02:51.015Z,53.30
2023-04-26T13:05:19.042Z,52.80
2023-04-26T13:07:47.868Z,52.80
2023-04-26T13:10:17.350Z,52.60
2023-04-26T13:12:45.221Z,53.10
2023-04-26T13:15:14.022Z,52.90
2023-04-26T13:17:44.694Z,53.20
2023-04-26T13:20:13.822Z,53.40
2023-04-26T13:22:43.222Z,52.70
2023-04-26T13:25:13.079Z,53.20
2023-04-26T13:27:42.476Z,53.60
2023-04-26T13:30:11.961Z,53.30
2023-04-26T13:32:39.897Z,53.60
2023-04-26T13:35:11.982Z,53.10
2023-04-26T13:37:40.061Z,52.70
2023-04-26T13:40:11.559Z,52.20
2023-04-26T13:42:39.657Z,52.30
2023-04-26T13:45:10.630Z,52.00
2023-04-26T13:47:38.596Z,51.70
2023-04-26T13:50:07.440Z,51.60
2023-04-26T13:52:35.394Z,51.40
2023-04-26T13:55:04.371Z,50.90
2023-04-26T13:57:32.563Z,51.20
2023-04-26T14:00:00.348Z,51.00
2023-04-26T14:02:29.652Z,51.30
2023-04-26T14:04:57.773Z,51.20
2023-04-26T14:07:26.244Z,51.10
2023-04-26T14:09:54.042Z,51.00
2023-04-26T14:12:21.902Z,51.40
2023-04-26T14:14:50.042Z,51.50
2023-04-26T14:17:17.947Z,51.40
2023-04-26T14:19:47.726Z,51.50
2023-04-26T14:22:17.715Z,52.00
2023-04-26T14:24:46.200Z,51.90
2023-04-26T14:27:14.181Z,51.40
2023-04-26T14:29:42.138Z,52.10
2023-04-26T14:32:10.060Z,51.30
2023-04-26T14:34:39.166Z,51.70
2023-04-26T14:37:08.507Z,51.70
2023-04-26T14:39:37.130Z,51.70
2023-04-26T14:42:05.364Z,51.90
2023-04-26T14:44:33.201Z,51.60
2023-04-26T14:47:01.533Z,51.60
2023-04-26T14:49:29.409Z,51.40
2023-04-26T14:51:57.298Z,50.90
2023-04-26T14:54:26.556Z,50.70
2023-04-26T14:56:54.477Z,50.70
2023-04-26T14:59:22.429Z,50.50
2023-04-26T15:01:53.164Z,50.00
2023-04-26T15:04:21.259Z,50.00
2023-04-26T15:06:49.795Z,49.70
2023-04-26T15:09:17.856Z,49.30
2023-04-26T15:11:47.292Z,49.30
2023-04-26T15:14:16.296Z,49.40
2023-04-26T15:16:45.301Z,49.20
2023-04-26T15:19:13.929Z,49.70
2023-04-26T15:21:42.264Z,48.90
2023-04-26T15:24:10.682Z,48.80
2023-04-26T15:26:38.572Z,48.50
2023-04-26T15:29:07.784Z,49.00
2023-04-26T15:31:35.836Z,49.20
2023-04-26T15:34:04.555Z,49.50
2023-04-26T15:36:32.604Z,48.50
2023-04-26T15:39:00.458Z,48.90
2023-04-26T15:41:28.303Z,49.30
2023-04-26T15:43:56.460Z,49.30
2023-04-26T15:46:25.752Z,49.30
2023-04-26T15:48:53.679Z,49.60
2023-04-26T15:51:21.517Z,49.40
2023-04-26T15:53:51.790Z,49.30
2023-04-26T15:56:20.045Z,49.00
2023-04-26T15:58:48.924Z,49.20
2023-04-26T16:01:17.193Z,48.90
2023-04-26T16:03:47.715Z,49.20
2023-04-26T16:06:16.653Z,49.40
2023-04-26T16:08:45.263Z,50.00
2023-04-26T16:11:13.992Z,49.70
2023-04-26T16:13:41.848Z,49.60
2023-04-26T16:16:10.985Z,49.50
2023-04-26T16:18:40.156Z,49.60
2023-04-26T16:21:10.626Z,49.00
2023-04-26T16:23:38.653Z,49.40
2023-04-26T16:26:06.953Z,49.30
2023-04-26T16:28:34.897Z,48.80
2023-04-26T16:31:02.856Z,48.70
2023-04-26T16:33:30.868Z,48.10
2023-04-26T16:35:58.742Z,48.10
2023-04-26T16:38:27.895Z,48.00
2023-04-26T16:40:58.040Z,48.10
2023-04-26T16:43:26.778Z,48.70
2023-04-26T16:46:02.022Z,49.10
2023-04-26T16:48:32.650Z,49.90
2023-04-26T16:51:00.753Z,49.70
2023-04-26T16:53:30.518Z,49.40
2023-04-26T16:55:58.664Z,49.00
2023-04-26T16:58:26.695Z,49.20
2023-04-26T17:00:54.771Z,49.40
2023-04-26T17:03:23.847Z,49.80
2023-04-26T17:05:52.073Z,49.80
2023-04-26T17:08:20.704Z,49.80
2023-04-26T17:10:51.649Z,50.50
2023-04-26T17:13:19.788Z,49.60
2023-04-26T17:15:47.899Z,50.00
2023-04-26T17:18:16.033Z,50.00
2023-04-26T17:20:43.867Z,51.70
2023-04-26T17:23:11.709Z,50.50
2023-04-26T17:25:39.835Z,50.30
2023-04-26T17:28:09.895Z,50.00
2023-04-26T17:30:38.229Z,50.10
2023-04-26T17:33:07.498Z,50.10
2023-04-26T17:35:35.825Z,50.30
2023-04-26T17:38:03.999Z,50.00
2023-04-26T17:40:31.891Z,50.00
2023-04-26T17:42:59.763Z,50.10
2023-04-26T17:45:29.110Z,50.00
2023-04-26T17:47:56.922Z,50.00
2023-04-26T17:50:24.756Z,50.30
2023-04-26T17:52:52.557Z,50.50
2023-04-26T17:55:20.703Z,50.70
2023-04-26T17:57:48.670Z,50.50
2023-04-26T18:00:17.220Z,50.70
2023-04-26T18:02:46.629Z,50.80
2023-04-26T18:05:15.328Z,50.60
2023-04-26T18:07:43.174Z,51.10
2023-04-26T18:10:11.563Z,51.00
2023-04-26T18:12:39.784Z,50.90
2023-04-26T18:15:08.811Z,50.90
2023-04-26T18:17:36.891Z,51.00
2023-04-26T18:20:07.524Z,51.20
2023-04-26T18:22:35.329Z,51.40
2023-04-26T18:25:03.778Z,51.10
2023-04-26T18:27:31.760Z,51.50
2023-04-26T18:30:01.018Z,51.40
2023-04-26T18:32:29.032Z,51.50
2023-04-26T18:34:56.919Z,51.60
2023-04-26T18:37:26.215Z,51.80
2023-04-26T18:39:54.036Z,51.80
2023-04-26T18:42:21.782Z,51.90
2023-04-26T18:44:49.869Z,52.00
2023-04-26T18:47:17.720Z,51.90
2023-04-26T18:49:48.125Z,52.30
2023-04-26T18:52:15.974Z,52.50
2023-04-26T18:54:45.456Z,52.80
2023-04-26T18:57:14.669Z,53.00
2023-04-26T18:59:42.554Z,53.10
2023-04-26T19:02:11.505Z,53.50
2023-04-26T19:04:40.296Z,53.50
2023-04-26T19:07:08.201Z,54.30
2023-04-26T19:09:50.542Z,54.50
2023-04-26T19:12:23.284Z,54.10
2023-04-26T19:14:51.211Z,54.90
2023-04-26T19:17:19.202Z,54.30
2023-04-26T19:19:47.605Z,54.70
2023-04-26T19:22:16.110Z,54.70
2023-04-26T19:24:44.062Z,54.90
2023-04-26T19:27:12.754Z,54.90
2023-04-26T19:29:41.938Z,55.00
2023-04-26T19:32:09.921Z,55.10
2023-04-26T19:34:38.811Z,55.30
2023-04-26T19:37:06.992Z,55.50
2023-04-26T19:39:34.794Z,55.80
2023-04-26T19:42:03.299Z,55.60
2023-04-26T19:44:31.333Z,55.70
2023-04-26T19:47:00.748Z,55.90
2023-04-26T19:49:29.217Z,56.00
2023-04-26T19:51:57.228Z,56.30
2023-04-26T19:54:25.391Z,56.30
2023-04-26T19:56:53.193Z,56.30
2023-04-26T19:59:21.005Z,56.30
2023-04-26T20:01:49.985Z,56.50
2023-04-26T20:04:21.862Z,56.90
2023-04-26T20:06:50.288Z,56.90
2023-04-26T20:09:18.123Z,56.90
2023-04-26T20:11:45.929Z,57.30
2023-04-26T20:14:14.093Z,57.60
2023-04-26T20:16:41.884Z,57.60
2023-04-26T20:19:10.233Z,57.80
2023-04-26T20:21:39.636Z,57.90
2023-04-26T20:24:08.099Z,58.00
2023-04-26T20:26:36.016Z,58.20
2023-04-26T20:29:03.827Z,58.30
2023-04-26T20:31:32.597Z,58.50
2023-04-26T20:34:00.927Z,58.70
2023-04-26T20:36:28.852Z,58.80
2023-04-26T20:38:57.979Z,58.90
2023-04-26T20:41:25.849Z,58.90
2023-04-26T20:43:53.742Z,59.00
2023-04-26T20:46:21.776Z,59.20
2023-04-26T20:48:49.882Z,59.30
2023-04-26T20:51:17.702Z,59.50
2023-04-26T20:53:46.165Z,59.70
2023-04-26T20:56:16.136Z,59.70
2023-04-26T20:58:44.185Z,59.90
2023-04-26T21:01:12.142Z,59.80
2023-04-26T21:03:40.088Z,59.80
2023-04-26T21:06:08.023Z,60.10
2023-04-26T21:08:36.991Z,60.20
2023-04-26T21:11:04.988Z,60.30
2023-04-26T21:13:34.150Z,60.50
2023-04-26T21:16:02.715Z,60.80
2023-04-26T21:18:30.713Z,61.10
2023-04-26T21:20:58.600Z,61.10
2023-04-26T21:23:26.673Z,61.30
2023-04-26T21:25:54.583Z,61.30
2023-04-26T21:28:23.112Z,61.50
2023-04-26T21:31:01.934Z,61.80
2023-04-26T21:33:29.827Z,62.20
2023-04-26T21:35:59.654Z,62.30
2023-04-26T21:38:28.628Z,62.10
2023-04-26T21:40:56.459Z,62.20
2023-04-26T21:43:24.996Z,62.40
2023-04-26T21:45:57.851Z,62.50
2023-04-26T21:48:26.166Z,62.60
2023-04-26T21:50:54.113Z,62.60
2023-04-26T21:53:21.966Z,63.00
2023-04-26T21:55:52.771Z,63.00
2023-04-26T21:58:20.937Z,63.10
2023-04-26T22:00:49.275Z,63.10
2023-04-26T22:03:18.696Z,63.20
2023-04-26T22:05:46.802Z,63.50
2023-04-26T22:08:14.748Z,64.70
2023-04-26T22:10:42.976Z,64.70
2023-04-26T22:13:10.853Z,64.80
2023-04-26T22:15:38.760Z,65.10
2023-04-26T22:18:06.796Z,65.00
2023-04-26T22:20:35.945Z,65.30
2023-04-26T22:23:03.724Z,65.60
2023-04-26T22:25:31.657Z,65.60
2023-04-26T22:27:59.539Z,65.60
2023-04-26T22:30:27.422Z,65.70
2023-04-26T22:32:57.976Z,66.40
2023-04-26T22:35:27.568Z,65.80
2023-04-26T22:37:57.050Z,66.20
2023-04-26T22:40:25.025Z,66.20
2023-04-26T22:42:53.921Z,66.30
2023-04-26T22:45:22.840Z,66.40
2023-04-26T22:47:51.012Z,66.70
2023-04-26T22:50:19.319Z,66.70
2023-04-26T22:52:47.594Z,66.90
2023-04-26T22:55:16.777Z,67.00
2023-04-26T22:57:44.608Z,67.00
2023-04-26T23:00:14.488Z,66.80
2023-04-26T23:02:42.499Z,67.00
2023-04-26T23:05:10.980Z,67.80
2023-04-26T23:07:39.157Z,67.20
2023-04-26T23:10:08.029Z,67.00
2023-04-26T23:12:37.289Z,67.00
2023-04-26T23:15:06.176Z,67.30
2023-04-26T23:17:34.681Z,67.20
2023-04-26T23:20:08.049Z,67.10
2023-04-26T23:22:35.805Z,67.20
2023-04-26T23:25:03.656Z,67.30
2023-04-26T23:27:31.542Z,67.80
2023-04-26T23:30:00.760Z,67.30
2023-04-26T23:32:28.743Z,67.50
2023-04-26T23:34:56.569Z,67.30
2023-04-26T23:37:24.392Z,67.50
2023-04-26T23:39:52.389Z,67.80
2023-04-26T23:42:20.496Z,67.90
2023-04-26T23:44:48.637Z,67.50
2023-04-26T23:47:17.882Z,68.00
2023-04-26T23:49:45.968Z,68.10
2023-04-26T23:52:14.320Z,68.20
2023-04-26T23:54:42.159Z,68.20
2023-04-26T23:57:09.949Z,68.10
2023-04-26T23:59:37.784Z,68.20
